sensor_id;sensor_type;location;lat;lon;timestamp;temperature;humidity
33382;DHT22;21342;48.786;9.166;2022-10-10T00:02:22;13.50;99.90
33382;DHT22;21342;48.786;9.166;2022-10-10T00:04:50;13.50;99.90
33382;DHT22;21342;48.786;9.166;2022-10-10T00:07:18;13.40;99.90
33382;DHT22;21342;48.786;9.166;2022-10-10T00:09:46;13.40;99.90
33382;DHT22;21342;48.786;9.166;2022-10-10T00:12:13;13.50;99.90
33382;DHT22;21342;48.786;9.166;2022-10-10T00:14:40;13.50;99.90
33382;DHT22;21342;48.786;9.166;2022-10-10T00:17:07;13.50;99.90
33382;DHT22;21342;48.786;9.166;2022-10-10T00:19:34;13.40;99.90
33382;DHT22;21342;48.786;9.166;2022-10-10T00:22:03;13.40;99.90
33382;DHT22;21342;48.786;9.166;2022-10-10T00:24:30;13.40;99.90
33382;DHT22;21342;48.786;9.166;2022-10-10T00:26:57;13.40;99.90
33382;DHT22;21342;48.786;9.166;2022-10-10T00:29:24;13.40;99.90
33382;DHT22;21342;48.786;9.166;2022-10-10T00:31:51;13.50;99.90
33382;DHT22;21342;48.786;9.166;2022-10-10T00:34:19;13.50;99.90
33382;DHT22;21342;48.786;9.166;2022-10-10T00:36:46;13.60;99.90
33382;DHT22;21342;48.786;9.166;2022-10-10T00:39:14;13.60;99.90
33382;DHT22;21342;48.786;9.166;2022-10-10T00:41:41;13.60;99.90
33382;DHT22;21342;48.786;9.166;2022-10-10T00:44:10;13.60;99.90
33382;DHT22;21342;48.786;9.166;2022-10-10T00:46:38;13.60;99.90
33382;DHT22;21342;48.786;9.166;2022-10-10T00:49:10;13.70;99.90
33382;DHT22;21342;48.786;9.166;2022-10-10T00:51:39;13.60;99.90
33382;DHT22;21342;48.786;9.166;2022-10-10T00:54:08;13.70;99.90
33382;DHT22;21342;48.786;9.166;2022-10-10T00:56:40;13.70;99.90
33382;DHT22;21342;48.786;9.166;2022-10-10T00:59:09;13.70;99.90
33382;DHT22;21342;48.786;9.166;2022-10-10T01:01:37;13.70;99.90
33382;DHT22;21342;48.786;9.166;2022-10-10T01:04:05;13.70;99.90
33382;DHT22;21342;48.786;9.166;2022-10-10T01:06:32;13.70;99.90
33382;DHT22;21342;48.786;9.166;2022-10-10T01:09:00;13.80;99.90
33382;DHT22;21342;48.786;9.166;2022-10-10T01:11:40;13.70;99.90
33382;DHT22;21342;48.786;9.166;2022-10-10T01:14:19;13.70;99.90
33382;DHT22;21342;48.786;9.166;2022-10-10T01:16:57;13.70;99.90
33382;DHT22;21342;48.786;9.166;2022-10-10T01:19:42;13.70;99.90
33382;DHT22;21342;48.786;9.166;2022-10-10T01:22:22;13.70;99.90
33382;DHT22;21342;48.786;9.166;2022-10-10T01:24:58;13.70;99.90
33382;DHT22;21342;48.786;9.166;2022-10-10T01:27:33;13.70;99.90
33382;DHT22;21342;48.786;9.166;2022-10-10T01:30:07;13.80;99.90
33382;DHT22;21342;48.786;9.166;2022-10-10T01:32:41;13.70;99.90
33382;DHT22;21342;48.786;9.166;2022-10-10T01:38:10;13.80;99.90
33382;DHT22;21342;48.786;9.166;2022-10-10T01:40:46;13.80;99.90
33382;DHT22;21342;48.786;9.166;2022-10-10T01:43:16;13.80;99.90
33382;DHT22;21342;48.786;9.166;2022-10-10T01:45:45;13.70;99.90
33382;DHT22;21342;48.786;9.166;2022-10-10T01:48:15;13.70;99.90
33382;DHT22;21342;48.786;9.166;2022-10-10T01:50:57;13.70;99.90
33382;DHT22;21342;48.786;9.166;2022-10-10T01:53:32;13.70;99.90
33382;DHT22;21342;48.786;9.166;2022-10-10T01:56:08;13.70;99.90
33382;DHT22;21342;48.786;9.166;2022-10-10T01:58:53;13.60;99.90
33382;DHT22;21342;48.786;9.166;2022-10-10T02:01:31;13.60;99.90
33382;DHT22;21342;48.786;9.166;2022-10-10T02:04:05;13.50;99.90
33382;DHT22;21342;48.786;9.166;2022-10-10T02:06:38;13.50;99.90
33382;DHT22;21342;48.786;9.166;2022-10-10T02:09:09;13.60;99.90
33382;DHT22;21342;48.786;9.166;2022-10-10T02:11:38;13.60;99.90
33382;DHT22;21342;48.786;9.166;2022-10-10T02:14:11;13.60;99.90
33382;DHT22;21342;48.786;9.166;2022-10-10T02:16:44;13.60;99.90
33382;DHT22;21342;48.786;9.166;2022-10-10T02:19:18;13.60;99.90
33382;DHT22;21342;48.786;9.166;2022-10-10T02:21:46;13.60;99.90
33382;DHT22;21342;48.786;9.166;2022-10-10T02:24:15;13.60;99.90
33382;DHT22;21342;48.786;9.166;2022-10-10T02:26:47;13.60;99.90
33382;DHT22;21342;48.786;9.166;2022-10-10T02:29:22;13.40;99.90
33382;DHT22;21342;48.786;9.166;2022-10-10T02:31:57;13.40;99.90
33382;DHT22;21342;48.786;9.166;2022-10-10T02:34:31;13.50;99.90
33382;DHT22;21342;48.786;9.166;2022-10-10T02:37:01;13.50;99.90
33382;DHT22;21342;48.786;9.166;2022-10-10T02:39:32;13.50;99.90
33382;DHT22;21342;48.786;9.166;2022-10-10T02:42:01;13.60;99.90
33382;DHT22;21342;48.786;9.166;2022-10-10T02:44:30;13.60;99.90
33382;DHT22;21342;48.786;9.166;2022-10-10T02:46:59;13.60;99.90
33382;DHT22;21342;48.786;9.166;2022-10-10T02:49:27;13.50;99.90
33382;DHT22;21342;48.786;9.166;2022-10-10T02:51:55;13.40;99.90
33382;DHT22;21342;48.786;9.166;2022-10-10T02:54:23;13.20;99.90
33382;DHT22;21342;48.786;9.166;2022-10-10T02:56:50;13.20;99.90
33382;DHT22;21342;48.786;9.166;2022-10-10T02:59:17;13.10;99.90
33382;DHT22;21342;48.786;9.166;2022-10-10T03:01:44;13.00;99.90
33382;DHT22;21342;48.786;9.166;2022-10-10T03:04:13;13.10;99.90
33382;DHT22;21342;48.786;9.166;2022-10-10T03:06:40;13.20;99.90
33382;DHT22;21342;48.786;9.166;2022-10-10T03:09:08;13.10;99.90
33382;DHT22;21342;48.786;9.166;2022-10-10T03:11:35;13.20;99.90
33382;DHT22;21342;48.786;9.166;2022-10-10T03:14:02;13.30;99.90
33382;DHT22;21342;48.786;9.166;2022-10-10T03:16:29;13.30;99.90
33382;DHT22;21342;48.786;9.166;2022-10-10T03:18:56;13.20;99.90
33382;DHT22;21342;48.786;9.166;2022-10-10T03:21:25;13.20;99.90
33382;DHT22;21342;48.786;9.166;2022-10-10T03:23:52;13.20;99.90
33382;DHT22;21342;48.786;9.166;2022-10-10T03:26:19;13.20;99.90
33382;DHT22;21342;48.786;9.166;2022-10-10T03:28:46;13.20;99.90
33382;DHT22;21342;48.786;9.166;2022-10-10T03:31:13;13.20;99.90
33382;DHT22;21342;48.786;9.166;2022-10-10T03:33:40;13.20;99.90
33382;DHT22;21342;48.786;9.166;2022-10-10T03:36:07;13.20;99.90
33382;DHT22;21342;48.786;9.166;2022-10-10T03:38:38;13.20;99.90
33382;DHT22;21342;48.786;9.166;2022-10-10T03:41:05;13.10;99.90
33382;DHT22;21342;48.786;9.166;2022-10-10T03:43:32;13.20;99.90
33382;DHT22;21342;48.786;9.166;2022-10-10T03:45:59;13.10;99.90
33382;DHT22;21342;48.786;9.166;2022-10-10T03:48:26;13.20;99.90
33382;DHT22;21342;48.786;9.166;2022-10-10T03:50:54;13.20;99.90
33382;DHT22;21342;48.786;9.166;2022-10-10T03:53:21;13.20;99.90
33382;DHT22;21342;48.786;9.166;2022-10-10T03:55:51;13.20;99.90
33382;DHT22;21342;48.786;9.166;2022-10-10T03:58:19;13.20;99.90
33382;DHT22;21342;48.786;9.166;2022-10-10T04:00:52;13.30;99.90
33382;DHT22;21342;48.786;9.166;2022-10-10T04:03:20;13.30;99.90
33382;DHT22;21342;48.786;9.166;2022-10-10T04:05:47;13.20;99.90
33382;DHT22;21342;48.786;9.166;2022-10-10T04:08:14;13.30;99.90
33382;DHT22;21342;48.786;9.166;2022-10-10T04:10:42;13.30;99.90
33382;DHT22;21342;48.786;9.166;2022-10-10T04:13:10;13.30;99.90
33382;DHT22;21342;48.786;9.166;2022-10-10T04:15:38;13.20;99.90
33382;DHT22;21342;48.786;9.166;2022-10-10T04:18:05;13.20;99.90
33382;DHT22;21342;48.786;9.166;2022-10-10T04:20:33;13.20;99.90
33382;DHT22;21342;48.786;9.166;2022-10-10T04:23:00;13.20;99.90
33382;DHT22;21342;48.786;9.166;2022-10-10T04:25:27;13.10;99.90
33382;DHT22;21342;48.786;9.166;2022-10-10T04:27:54;13.00;99.90
33382;DHT22;21342;48.786;9.166;2022-10-10T04:30:23;13.00;99.90
33382;DHT22;21342;48.786;9.166;2022-10-10T04:32:50;13.10;99.90
33382;DHT22;21342;48.786;9.166;2022-10-10T04:35:18;13.10;99.90
33382;DHT22;21342;48.786;9.166;2022-10-10T04:37:45;13.20;99.90
33382;DHT22;21342;48.786;9.166;2022-10-10T04:40:12;13.10;99.90
33382;DHT22;21342;48.786;9.166;2022-10-10T04:42:39;13.10;99.90
33382;DHT22;21342;48.786;9.166;2022-10-10T04:45:07;13.10;99.90
33382;DHT22;21342;48.786;9.166;2022-10-10T04:47:36;13.00;99.90
33382;DHT22;21342;48.786;9.166;2022-10-10T04:50:07;13.00;99.90
33382;DHT22;21342;48.786;9.166;2022-10-10T04:52:34;13.00;99.90
33382;DHT22;21342;48.786;9.166;2022-10-10T04:55:01;13.00;99.90
33382;DHT22;21342;48.786;9.166;2022-10-10T04:57:28;13.00;99.90
33382;DHT22;21342;48.786;9.166;2022-10-10T04:59:55;13.00;99.90
33382;DHT22;21342;48.786;9.166;2022-10-10T05:02:23;13.00;99.90
33382;DHT22;21342;48.786;9.166;2022-10-10T05:04:51;13.00;99.90
33382;DHT22;21342;48.786;9.166;2022-10-10T05:07:19;13.00;99.90
33382;DHT22;21342;48.786;9.166;2022-10-10T05:09:46;13.00;99.90
33382;DHT22;21342;48.786;9.166;2022-10-10T05:12:13;13.10;99.90
33382;DHT22;21342;48.786;9.166;2022-10-10T05:14:40;13.00;99.90
33382;DHT22;21342;48.786;9.166;2022-10-10T05:17:08;12.90;99.90
33382;DHT22;21342;48.786;9.166;2022-10-10T05:19:35;13.00;99.90
33382;DHT22;21342;48.786;9.166;2022-10-10T05:22:03;13.00;99.90
33382;DHT22;21342;48.786;9.166;2022-10-10T05:24:30;12.90;99.90
33382;DHT22;21342;48.786;9.166;2022-10-10T05:27:00;12.90;99.90
33382;DHT22;21342;48.786;9.166;2022-10-10T05:29:27;12.90;99.90
33382;DHT22;21342;48.786;9.166;2022-10-10T05:31:55;12.90;99.90
33382;DHT22;21342;48.786;9.166;2022-10-10T05:34:22;13.00;99.90
33382;DHT22;21342;48.786;9.166;2022-10-10T05:36:49;12.90;99.90
33382;DHT22;21342;48.786;9.166;2022-10-10T05:39:18;12.80;99.90
33382;DHT22;21342;48.786;9.166;2022-10-10T05:41:45;12.90;99.90
33382;DHT22;21342;48.786;9.166;2022-10-10T05:44:12;13.00;99.90
33382;DHT22;21342;48.786;9.166;2022-10-10T05:46:39;13.00;99.90
33382;DHT22;21342;48.786;9.166;2022-10-10T05:49:06;13.00;99.90
33382;DHT22;21342;48.786;9.166;2022-10-10T05:51:33;13.00;99.90
33382;DHT22;21342;48.786;9.166;2022-10-10T05:54:01;13.00;99.90
33382;DHT22;21342;48.786;9.166;2022-10-10T05:56:31;12.90;99.90
33382;DHT22;21342;48.786;9.166;2022-10-10T05:58:58;12.90;99.90
33382;DHT22;21342;48.786;9.166;2022-10-10T06:01:25;13.00;99.90
33382;DHT22;21342;48.786;9.166;2022-10-10T06:03:52;13.00;99.90
33382;DHT22;21342;48.786;9.166;2022-10-10T06:06:21;13.10;99.90
33382;DHT22;21342;48.786;9.166;2022-10-10T06:08:48;13.10;99.90
33382;DHT22;21342;48.786;9.166;2022-10-10T06:11:16;13.10;99.90
33382;DHT22;21342;48.786;9.166;2022-10-10T06:13:46;13.10;99.90
33382;DHT22;21342;48.786;9.166;2022-10-10T06:16:17;13.20;99.90
33382;DHT22;21342;48.786;9.166;2022-10-10T06:18:44;13.30;99.90
33382;DHT22;21342;48.786;9.166;2022-10-10T06:21:12;13.30;99.90
33382;DHT22;21342;48.786;9.166;2022-10-10T06:23:39;13.40;99.90
33382;DHT22;21342;48.786;9.166;2022-10-10T06:26:07;13.40;99.90
33382;DHT22;21342;48.786;9.166;2022-10-10T06:28:34;13.40;99.90
33382;DHT22;21342;48.786;9.166;2022-10-10T06:31:05;13.40;99.90
33382;DHT22;21342;48.786;9.166;2022-10-10T06:33:33;13.50;99.90
33382;DHT22;21342;48.786;9.166;2022-10-10T06:36:03;13.50;99.90
33382;DHT22;21342;48.786;9.166;2022-10-10T06:38:34;13.60;99.90
33382;DHT22;21342;48.786;9.166;2022-10-10T06:41:02;13.70;99.90
33382;DHT22;21342;48.786;9.166;2022-10-10T06:43:29;13.70;99.90
33382;DHT22;21342;48.786;9.166;2022-10-10T06:45:57;13.60;99.90
33382;DHT22;21342;48.786;9.166;2022-10-10T06:48:26;13.70;99.90
33382;DHT22;21342;48.786;9.166;2022-10-10T06:50:56;13.70;99.90
33382;DHT22;21342;48.786;9.166;2022-10-10T06:53:23;13.70;99.90
33382;DHT22;21342;48.786;9.166;2022-10-10T06:55:52;13.70;99.90
33382;DHT22;21342;48.786;9.166;2022-10-10T06:58:20;13.80;99.90
33382;DHT22;21342;48.786;9.166;2022-10-10T07:00:49;13.80;99.90
33382;DHT22;21342;48.786;9.166;2022-10-10T07:03:16;13.80;99.90
33382;DHT22;21342;48.786;9.166;2022-10-10T07:05:48;13.90;99.90
33382;DHT22;21342;48.786;9.166;2022-10-10T07:08:15;13.90;99.90
33382;DHT22;21342;48.786;9.166;2022-10-10T07:10:42;14.00;99.90
33382;DHT22;21342;48.786;9.166;2022-10-10T07:13:10;14.10;99.90
33382;DHT22;21342;48.786;9.166;2022-10-10T07:15:40;14.10;99.90
33382;DHT22;21342;48.786;9.166;2022-10-10T07:18:08;14.10;99.90
33382;DHT22;21342;48.786;9.166;2022-10-10T07:20:38;14.10;99.90
33382;DHT22;21342;48.786;9.166;2022-10-10T07:23:07;14.10;99.90
33382;DHT22;21342;48.786;9.166;2022-10-10T07:25:37;14.10;99.90
33382;DHT22;21342;48.786;9.166;2022-10-10T07:28:04;14.20;99.90
33382;DHT22;21342;48.786;9.166;2022-10-10T07:30:32;14.40;99.90
33382;DHT22;21342;48.786;9.166;2022-10-10T07:32:59;14.50;99.90
33382;DHT22;21342;48.786;9.166;2022-10-10T07:35:26;14.50;99.90
33382;DHT22;21342;48.786;9.166;2022-10-10T07:37:54;14.60;99.90
33382;DHT22;21342;48.786;9.166;2022-10-10T07:40:23;14.70;99.90
33382;DHT22;21342;48.786;9.166;2022-10-10T07:42:50;14.80;99.90
33382;DHT22;21342;48.786;9.166;2022-10-10T07:45:18;14.70;99.90
33382;DHT22;21342;48.786;9.166;2022-10-10T07:47:45;14.80;99.90
33382;DHT22;21342;48.786;9.166;2022-10-10T07:50:13;14.90;99.90
33382;DHT22;21342;48.786;9.166;2022-10-10T07:52:40;14.90;99.90
33382;DHT22;21342;48.786;9.166;2022-10-10T07:55:08;15.00;99.90
33382;DHT22;21342;48.786;9.166;2022-10-10T07:57:37;15.10;99.90
33382;DHT22;21342;48.786;9.166;2022-10-10T08:00:06;15.10;99.90
33382;DHT22;21342;48.786;9.166;2022-10-10T08:02:33;15.20;99.90
33382;DHT22;21342;48.786;9.166;2022-10-10T08:05:01;15.30;99.90
33382;DHT22;21342;48.786;9.166;2022-10-10T08:07:28;15.30;99.90
33382;DHT22;21342;48.786;9.166;2022-10-10T08:09:56;15.40;99.90
33382;DHT22;21342;48.786;9.166;2022-10-10T08:12:23;15.50;99.90
33382;DHT22;21342;48.786;9.166;2022-10-10T08:14:51;15.50;99.90
33382;DHT22;21342;48.786;9.166;2022-10-10T08:17:19;15.70;99.90
33382;DHT22;21342;48.786;9.166;2022-10-10T08:19:46;15.80;99.90
33382;DHT22;21342;48.786;9.166;2022-10-10T08:22:13;15.90;99.90
33382;DHT22;21342;48.786;9.166;2022-10-10T08:24:40;15.90;99.90
33382;DHT22;21342;48.786;9.166;2022-10-10T08:27:07;16.00;99.90
33382;DHT22;21342;48.786;9.166;2022-10-10T08:29:34;16.00;99.90
33382;DHT22;21342;48.786;9.166;2022-10-10T08:32:03;16.00;99.90
33382;DHT22;21342;48.786;9.166;2022-10-10T08:34:30;16.00;99.90
33382;DHT22;21342;48.786;9.166;2022-10-10T08:36:57;16.10;99.90
33382;DHT22;21342;48.786;9.166;2022-10-10T08:39:24;16.30;99.90
33382;DHT22;21342;48.786;9.166;2022-10-10T08:41:54;16.50;99.90
33382;DHT22;21342;48.786;9.166;2022-10-10T08:44:25;16.70;99.90
33382;DHT22;21342;48.786;9.166;2022-10-10T08:46:56;16.90;99.90
33382;DHT22;21342;48.786;9.166;2022-10-10T08:49:30;16.80;99.90
33382;DHT22;21342;48.786;9.166;2022-10-10T08:52:02;16.90;99.90
33382;DHT22;21342;48.786;9.166;2022-10-10T08:54:32;17.00;99.90
33382;DHT22;21342;48.786;9.166;2022-10-10T08:57:04;17.20;99.90
33382;DHT22;21342;48.786;9.166;2022-10-10T08:59:34;17.50;99.90
33382;DHT22;21342;48.786;9.166;2022-10-10T09:02:27;17.70;99.90
33382;DHT22;21342;48.786;9.166;2022-10-10T09:04:56;17.70;99.90
33382;DHT22;21342;48.786;9.166;2022-10-10T09:07:35;17.80;99.90
33382;DHT22;21342;48.786;9.166;2022-10-10T09:10:12;17.90;99.90
33382;DHT22;21342;48.786;9.166;2022-10-10T09:12:47;18.30;99.90
33382;DHT22;21342;48.786;9.166;2022-10-10T09:15:23;18.40;99.90
33382;DHT22;21342;48.786;9.166;2022-10-10T09:17:58;18.50;99.90
33382;DHT22;21342;48.786;9.166;2022-10-10T09:20:39;18.50;99.90
33382;DHT22;21342;48.786;9.166;2022-10-10T09:23:19;18.30;99.90
33382;DHT22;21342;48.786;9.166;2022-10-10T09:25:51;18.50;99.90
33382;DHT22;21342;48.786;9.166;2022-10-10T09:28:33;18.70;99.90
33382;DHT22;21342;48.786;9.166;2022-10-10T09:31:02;18.80;99.90
33382;DHT22;21342;48.786;9.166;2022-10-10T09:33:35;18.80;99.90
33382;DHT22;21342;48.786;9.166;2022-10-10T09:36:09;18.90;99.90
33382;DHT22;21342;48.786;9.166;2022-10-10T09:38:43;19.00;99.90
33382;DHT22;21342;48.786;9.166;2022-10-10T09:41:14;19.20;99.90
33382;DHT22;21342;48.786;9.166;2022-10-10T09:43:43;19.00;99.90
33382;DHT22;21342;48.786;9.166;2022-10-10T09:46:10;19.30;99.90
33382;DHT22;21342;48.786;9.166;2022-10-10T09:48:39;19.50;99.90
33382;DHT22;21342;48.786;9.166;2022-10-10T09:51:12;19.50;99.90
33382;DHT22;21342;48.786;9.166;2022-10-10T09:53:40;19.60;99.90
33382;DHT22;21342;48.786;9.166;2022-10-10T09:56:13;19.70;99.90
33382;DHT22;21342;48.786;9.166;2022-10-10T09:58:46;19.80;99.90
33382;DHT22;21342;48.786;9.166;2022-10-10T10:01:17;19.90;99.90
33382;DHT22;21342;48.786;9.166;2022-10-10T10:04:11;19.90;99.90
33382;DHT22;21342;48.786;9.166;2022-10-10T10:06:42;19.90;99.90
33382;DHT22;21342;48.786;9.166;2022-10-10T10:09:14;19.90;99.90
33382;DHT22;21342;48.786;9.166;2022-10-10T10:11:43;19.80;99.90
33382;DHT22;21342;48.786;9.166;2022-10-10T10:14:21;19.80;99.90
33382;DHT22;21342;48.786;9.166;2022-10-10T10:16:51;19.70;99.90
33382;DHT22;21342;48.786;9.166;2022-10-10T10:19:31;19.90;99.90
33382;DHT22;21342;48.786;9.166;2022-10-10T10:22:01;20.00;99.90
33382;DHT22;21342;48.786;9.166;2022-10-10T10:24:32;20.00;99.90
33382;DHT22;21342;48.786;9.166;2022-10-10T10:27:16;20.30;99.90
33382;DHT22;21342;48.786;9.166;2022-10-10T10:29:46;20.30;99.90
33382;DHT22;21342;48.786;9.166;2022-10-10T10:32:18;20.40;99.90
33382;DHT22;21342;48.786;9.166;2022-10-10T10:35:03;20.60;99.90
33382;DHT22;21342;48.786;9.166;2022-10-10T10:37:42;20.60;99.90
33382;DHT22;21342;48.786;9.166;2022-10-10T10:40:26;20.80;99.90
33382;DHT22;21342;48.786;9.166;2022-10-10T10:46:09;20.60;99.90
33382;DHT22;21342;48.786;9.166;2022-10-10T10:48:45;20.70;99.90
33382;DHT22;21342;48.786;9.166;2022-10-10T10:51:27;20.70;99.90
33382;DHT22;21342;48.786;9.166;2022-10-10T10:54:04;20.60;99.90
33382;DHT22;21342;48.786;9.166;2022-10-10T10:56:37;20.50;99.90
33382;DHT22;21342;48.786;9.166;2022-10-10T10:59:18;20.50;99.90
33382;DHT22;21342;48.786;9.166;2022-10-10T11:01:51;21.00;99.90
33382;DHT22;21342;48.786;9.166;2022-10-10T11:07:15;23.90;99.90
33382;DHT22;21342;48.786;9.166;2022-10-10T11:09:52;25.10;99.90
33382;DHT22;21342;48.786;9.166;2022-10-10T11:12:41;26.10;99.90
33382;DHT22;21342;48.786;9.166;2022-10-10T11:15:15;26.10;99.90
33382;DHT22;21342;48.786;9.166;2022-10-10T11:17:48;25.90;99.90
33382;DHT22;21342;48.786;9.166;2022-10-10T11:20:21;25.80;99.90
33382;DHT22;21342;48.786;9.166;2022-10-10T11:22:55;25.50;99.90
33382;DHT22;21342;48.786;9.166;2022-10-10T11:25:29;25.90;99.90
33382;DHT22;21342;48.786;9.166;2022-10-10T11:28:03;26.50;99.80
33382;DHT22;21342;48.786;9.166;2022-10-10T11:30:35;26.50;99.90
33382;DHT22;21342;48.786;9.166;2022-10-10T11:33:10;26.20;99.60
33382;DHT22;21342;48.786;9.166;2022-10-10T11:35:41;26.50;99.90
33382;DHT22;21342;48.786;9.166;2022-10-10T11:38:15;26.20;99.10
33382;DHT22;21342;48.786;9.166;2022-10-10T11:40:50;26.50;98.90
33382;DHT22;21342;48.786;9.166;2022-10-10T11:43:29;26.40;98.30
33382;DHT22;21342;48.786;9.166;2022-10-10T11:46:02;26.00;99.00
33382;DHT22;21342;48.786;9.166;2022-10-10T11:48:36;27.10;98.90
33382;DHT22;21342;48.786;9.166;2022-10-10T11:51:17;27.60;98.30
33382;DHT22;21342;48.786;9.166;2022-10-10T11:53:47;26.40;97.00
33382;DHT22;21342;48.786;9.166;2022-10-10T11:56:23;25.60;97.80
33382;DHT22;21342;48.786;9.166;2022-10-10T11:58:56;25.80;98.80
33382;DHT22;21342;48.786;9.166;2022-10-10T12:01:28;25.80;98.40
33382;DHT22;21342;48.786;9.166;2022-10-10T12:03:56;25.50;98.00
33382;DHT22;21342;48.786;9.166;2022-10-10T12:06:26;25.70;98.50
33382;DHT22;21342;48.786;9.166;2022-10-10T12:08:59;25.80;98.00
33382;DHT22;21342;48.786;9.166;2022-10-10T12:11:34;25.80;98.30
33382;DHT22;21342;48.786;9.166;2022-10-10T12:14:04;26.50;98.50
33382;DHT22;21342;48.786;9.166;2022-10-10T12:16:33;26.80;97.30
33382;DHT22;21342;48.786;9.166;2022-10-10T12:19:04;26.20;97.60
33382;DHT22;21342;48.786;9.166;2022-10-10T12:21:51;25.70;97.50
33382;DHT22;21342;48.786;9.166;2022-10-10T12:24:22;25.20;98.20
33382;DHT22;21342;48.786;9.166;2022-10-10T12:27:26;24.60;99.40
33382;DHT22;21342;48.786;9.166;2022-10-10T12:30:19;24.80;99.90
33382;DHT22;21342;48.786;9.166;2022-10-10T12:32:47;25.70;98.60
33382;DHT22;21342;48.786;9.166;2022-10-10T12:35:39;25.50;98.90
33382;DHT22;21342;48.786;9.166;2022-10-10T12:38:18;25.90;98.30
33382;DHT22;21342;48.786;9.166;2022-10-10T12:41:06;26.30;97.50
33382;DHT22;21342;48.786;9.166;2022-10-10T12:43:44;26.30;97.50
33382;DHT22;21342;48.786;9.166;2022-10-10T12:46:23;25.90;98.80
33382;DHT22;21342;48.786;9.166;2022-10-10T12:49:12;25.50;98.50
33382;DHT22;21342;48.786;9.166;2022-10-10T12:51:40;25.10;98.10
33382;DHT22;21342;48.786;9.166;2022-10-10T12:54:07;24.40;98.90
33382;DHT22;21342;48.786;9.166;2022-10-10T12:56:46;24.50;99.50
33382;DHT22;21342;48.786;9.166;2022-10-10T12:59:22;24.20;99.90
33382;DHT22;21342;48.786;9.166;2022-10-10T13:01:54;24.30;99.90
33382;DHT22;21342;48.786;9.166;2022-10-10T13:04:23;24.10;99.90
33382;DHT22;21342;48.786;9.166;2022-10-10T13:06:53;23.60;99.90
33382;DHT22;21342;48.786;9.166;2022-10-10T13:09:23;23.20;99.90
33382;DHT22;21342;48.786;9.166;2022-10-10T13:11:57;22.90;99.90
33382;DHT22;21342;48.786;9.166;2022-10-10T13:14:35;22.70;99.90
33382;DHT22;21342;48.786;9.166;2022-10-10T13:17:03;22.50;99.90
33382;DHT22;21342;48.786;9.166;2022-10-10T13:19:30;22.60;99.90
33382;DHT22;21342;48.786;9.166;2022-10-10T13:21:57;22.40;99.90
33382;DHT22;21342;48.786;9.166;2022-10-10T13:24:28;22.20;99.90
33382;DHT22;21342;48.786;9.166;2022-10-10T13:26:57;21.90;99.90
33382;DHT22;21342;48.786;9.166;2022-10-10T13:29:28;21.80;99.90
33382;DHT22;21342;48.786;9.166;2022-10-10T13:31:59;22.40;99.90
33382;DHT22;21342;48.786;9.166;2022-10-10T13:34:29;23.00;99.90
33382;DHT22;21342;48.786;9.166;2022-10-10T13:36:59;23.70;99.90
33382;DHT22;21342;48.786;9.166;2022-10-10T13:39:31;23.70;99.90
33382;DHT22;21342;48.786;9.166;2022-10-10T13:42:00;23.10;99.90
33382;DHT22;21342;48.786;9.166;2022-10-10T13:44:46;22.80;99.90
33382;DHT22;21342;48.786;9.166;2022-10-10T13:47:48;22.80;99.90
33382;DHT22;21342;48.786;9.166;2022-10-10T13:50:34;22.60;99.90
33382;DHT22;21342;48.786;9.166;2022-10-10T13:53:20;22.40;99.90
33382;DHT22;21342;48.786;9.166;2022-10-10T13:55:48;22.20;99.90
33382;DHT22;21342;48.786;9.166;2022-10-10T13:58:16;22.00;99.90
33382;DHT22;21342;48.786;9.166;2022-10-10T14:00:53;22.10;99.90
33382;DHT22;21342;48.786;9.166;2022-10-10T14:03:21;21.80;99.90
33382;DHT22;21342;48.786;9.166;2022-10-10T14:05:49;21.80;99.90
33382;DHT22;21342;48.786;9.166;2022-10-10T14:08:18;21.80;99.90
33382;DHT22;21342;48.786;9.166;2022-10-10T14:10:55;21.90;99.90
33382;DHT22;21342;48.786;9.166;2022-10-10T14:13:23;22.00;99.90
33382;DHT22;21342;48.786;9.166;2022-10-10T14:15:51;22.00;99.90
33382;DHT22;21342;48.786;9.166;2022-10-10T14:18:20;21.90;99.90
33382;DHT22;21342;48.786;9.166;2022-10-10T14:20:48;21.90;99.90
33382;DHT22;21342;48.786;9.166;2022-10-10T14:23:16;21.90;99.90
33382;DHT22;21342;48.786;9.166;2022-10-10T14:25:45;21.90;99.90
33382;DHT22;21342;48.786;9.166;2022-10-10T14:28:15;21.80;99.90
33382;DHT22;21342;48.786;9.166;2022-10-10T14:30:43;21.70;99.90
33382;DHT22;21342;48.786;9.166;2022-10-10T14:33:13;21.70;99.90
33382;DHT22;21342;48.786;9.166;2022-10-10T14:35:41;21.60;99.90
33382;DHT22;21342;48.786;9.166;2022-10-10T14:38:09;21.50;99.90
33382;DHT22;21342;48.786;9.166;2022-10-10T14:40:37;21.50;99.90
33382;DHT22;21342;48.786;9.166;2022-10-10T14:43:04;21.50;99.90
33382;DHT22;21342;48.786;9.166;2022-10-10T14:45:31;21.50;99.90
33382;DHT22;21342;48.786;9.166;2022-10-10T14:47:58;21.50;99.90
33382;DHT22;21342;48.786;9.166;2022-10-10T14:50:31;21.50;99.90
33382;DHT22;21342;48.786;9.166;2022-10-10T14:52:59;21.50;99.90
33382;DHT22;21342;48.786;9.166;2022-10-10T14:55:26;21.40;99.90
33382;DHT22;21342;48.786;9.166;2022-10-10T14:57:53;21.30;99.90
33382;DHT22;21342;48.786;9.166;2022-10-10T15:00:22;21.30;99.90
33382;DHT22;21342;48.786;9.166;2022-10-10T15:02:50;21.10;99.90
33382;DHT22;21342;48.786;9.166;2022-10-10T15:05:17;21.10;99.90
33382;DHT22;21342;48.786;9.166;2022-10-10T15:07:45;21.10;99.90
33382;DHT22;21342;48.786;9.166;2022-10-10T15:10:15;21.00;99.90
33382;DHT22;21342;48.786;9.166;2022-10-10T15:12:43;20.90;99.90
33382;DHT22;21342;48.786;9.166;2022-10-10T15:15:11;21.00;99.90
33382;DHT22;21342;48.786;9.166;2022-10-10T15:17:39;21.00;99.90
33382;DHT22;21342;48.786;9.166;2022-10-10T15:20:08;21.00;99.90
33382;DHT22;21342;48.786;9.166;2022-10-10T15:22:36;21.00;99.90
33382;DHT22;21342;48.786;9.166;2022-10-10T15:25:05;21.00;99.90
33382;DHT22;21342;48.786;9.166;2022-10-10T15:27:33;20.90;99.90
33382;DHT22;21342;48.786;9.166;2022-10-10T15:30:00;20.90;99.90
33382;DHT22;21342;48.786;9.166;2022-10-10T15:32:27;20.90;99.90
33382;DHT22;21342;48.786;9.166;2022-10-10T15:34:55;20.90;99.90
33382;DHT22;21342;48.786;9.166;2022-10-10T15:37:24;20.90;99.90
33382;DHT22;21342;48.786;9.166;2022-10-10T15:39:51;20.90;99.90
33382;DHT22;21342;48.786;9.166;2022-10-10T15:44:48;20.80;99.90
33382;DHT22;21342;48.786;9.166;2022-10-10T15:47:18;20.70;99.90
33382;DHT22;21342;48.786;9.166;2022-10-10T15:49:45;20.70;99.90
33382;DHT22;21342;48.786;9.166;2022-10-10T15:52:13;20.70;99.90
33382;DHT22;21342;48.786;9.166;2022-10-10T15:54:40;20.70;99.90
33382;DHT22;21342;48.786;9.166;2022-10-10T15:57:07;20.70;99.90
33382;DHT22;21342;48.786;9.166;2022-10-10T15:59:36;20.50;99.90
33382;DHT22;21342;48.786;9.166;2022-10-10T16:02:03;20.50;99.90
33382;DHT22;21342;48.786;9.166;2022-10-10T16:04:30;20.50;99.90